createdAt,value
2018-03-06T16:12:59.160Z,22.5
2018-03-06T16:13:51.660Z,22.5
2018-03-06T16:14:41.436Z,22.4
2018-03-06T16:15:31.740Z,22.4
2018-03-06T16:16:21.546Z,22.4
2018-03-06T16:17:11.637Z,22.4
2018-03-06T16:18:02.014Z,22.4
2018-03-06T16:18:51.728Z,22.4
2018-03-06T16:19:41.790Z,22.4
2018-03-06T16:20:31.550Z,22.4
2018-03-06T16:21:22.232Z,22.4
2018-03-06T16:22:11.968Z,22.4
2018-03-06T16:23:02.031Z,22.4
2018-03-06T16:23:52.090Z,22.4
2018-03-06T16:24:41.831Z,22.4
2018-03-06T16:25:32.201Z,22.4
2018-03-06T16:26:22.270Z,22.4
2018-03-06T16:27:12.005Z,22.4
2018-03-06T16:28:01.236Z,22.4
2018-03-06T16:28:52.418Z,22.4
2018-03-06T16:29:42.476Z,22.3
2018-03-06T16:30:32.541Z,22.4
2018-03-06T16:31:22.932Z,22.3
2018-03-06T16:32:12.942Z,22.3
2018-03-06T16:33:02.744Z,22.3
2018-03-06T16:33:52.742Z,22.3
2018-03-06T16:34:43.503Z,22.3
2018-03-06T16:35:33.167Z,22.3
2018-03-06T16:36:23.204Z,22.3
2018-03-06T16:37:12.721Z,22.3
2018-03-06T16:38:02.771Z,22.3
2018-03-06T16:38:52.838Z,22.3
2018-03-06T16:39:43.444Z,22.3
2018-03-06T16:40:33.508Z,22.3
2018-03-06T16:41:23.554Z,22.3
2018-03-06T16:42:13.342Z,22.3
2018-03-06T16:43:03.712Z,22.3
2018-03-06T16:43:53.719Z,22.2
2018-03-06T16:44:43.788Z,22.2
2018-03-06T16:45:33.596Z,22.3
2018-03-06T16:46:23.910Z,22.2
2018-03-06T16:47:13.411Z,22.2
2018-03-06T16:48:03.730Z,22.2
2018-03-06T16:48:53.299Z,22.2
2018-03-06T16:49:43.883Z,22.3
2018-03-06T16:50:33.621Z,22.2
2018-03-06T16:51:23.980Z,22.2
2018-03-06T16:52:14.063Z,22.2
2018-03-06T16:53:03.805Z,22.2
2018-03-06T16:53:54.421Z,22.2
2018-03-06T16:54:44.193Z,22.2
2018-03-06T16:55:34.550Z,22.2
2018-03-06T16:56:24.610Z,22.2
2018-03-06T16:57:14.104Z,22.2
2018-03-06T16:58:04.696Z,22.1
2018-03-06T16:58:54.493Z,22.1
2018-03-06T16:59:44.547Z,22.1
2018-03-06T17:00:34.888Z,22.1
2018-03-06T17:01:24.931Z,22.1
2018-03-06T17:02:14.717Z,22.1
2018-03-06T17:03:05.060Z,22.1
2018-03-06T17:03:54.842Z,22.1
2018-03-06T17:04:45.703Z,22.1
2018-03-06T17:05:35.235Z,22.1
2018-03-06T17:06:25.005Z,22.1
2018-03-06T17:07:15.347Z,22.1
2018-03-06T17:08:05.393Z,22.1
2018-03-06T17:08:55.495Z,22.1
2018-03-06T17:09:44.952Z,22.1
2018-03-06T17:10:35.537Z,22.1
2018-03-06T17:11:25.061Z,22.1
2018-03-06T17:12:15.713Z,22.1
2018-03-06T17:13:05.477Z,22.1
2018-03-06T17:13:55.807Z,22.1
2018-03-06T17:14:45.859Z,22.1
2018-03-06T17:15:35.688Z,22
2018-03-06T17:16:25.401Z,22.1
2018-03-06T17:17:15.540Z,22
2018-03-06T17:18:05.822Z,22.1
2018-03-06T17:18:56.134Z,22
2018-03-06T17:19:45.953Z,22
2018-03-06T17:20:35.693Z,22
2018-03-06T17:21:26.306Z,22
2018-03-06T17:22:16.141Z,22
2018-03-06T17:23:06.445Z,22
2018-03-06T17:23:56.201Z,22
2018-03-06T17:24:46.544Z,22
2018-03-06T17:25:36.604Z,22
2018-03-06T17:26:26.686Z,22
2018-03-06T17:27:15.895Z,21.9
2018-03-06T17:28:06.795Z,22
2018-03-06T17:28:56.556Z,21.9
2018-03-06T17:29:46.664Z,22
2018-03-06T17:30:36.946Z,21.9
2018-03-06T17:31:27.009Z,21.9
2018-03-06T17:32:16.636Z,21.9
2018-03-06T17:33:06.759Z,21.9
2018-03-06T17:33:56.315Z,21.9
2018-03-06T17:34:46.406Z,21.9
2018-03-06T17:35:36.639Z,21.9
2018-03-06T17:36:26.406Z,21.9
2018-03-06T17:37:16.394Z,21.9
2018-03-06T17:38:06.649Z,21.9
2018-03-06T17:38:56.768Z,21.9
2018-03-06T17:39:46.904Z,21.9
2018-03-06T17:40:36.791Z,21.9
2018-03-06T17:41:26.863Z,21.9
2018-03-06T17:42:17.211Z,21.9
2018-03-06T17:43:07.371Z,21.9
2018-03-06T17:43:57.451Z,21.9
2018-03-06T17:44:46.674Z,21.9
2018-03-06T17:45:37.083Z,21.9
2018-03-06T17:46:27.376Z,21.9
2018-03-06T17:47:17.060Z,21.9
2018-03-06T17:48:07.405Z,21.9
2018-03-06T17:48:57.929Z,21.9
2018-03-06T17:49:47.773Z,21.9
2018-03-06T17:50:36.968Z,21.8
2018-03-06T17:51:27.867Z,21.9
2018-03-06T17:52:17.688Z,21.8
2018-03-06T17:53:07.768Z,21.8
2018-03-06T17:53:58.625Z,21.8
2018-03-06T17:54:48.312Z,21.8
2018-03-06T17:55:38.392Z,21.9
2018-03-06T17:56:28.452Z,21.8
2018-03-06T17:57:18.772Z,21.8
2018-03-06T17:58:08.032Z,21.8
2018-03-06T17:58:58.601Z,21.8
2018-03-06T17:59:48.392Z,21.8
2018-03-06T18:00:38.467Z,21.8
2018-03-06T18:01:28.822Z,21.8
2018-03-06T18:02:18.083Z,21.8
2018-03-06T18:03:08.132Z,21.8
2018-03-06T18:03:58.280Z,21.8
2018-03-06T18:04:49.306Z,21.8
2018-03-06T18:05:38.214Z,21.8
2018-03-06T18:06:29.465Z,21.8
2018-03-06T18:07:19.652Z,21.8
2018-03-06T18:08:09.224Z,21.8
2018-03-06T18:08:59.609Z,21.8
2018-03-06T18:09:49.636Z,21.8
2018-03-06T18:10:39.820Z,21.8
2018-03-06T18:11:29.754Z,21.8
2018-03-06T18:12:19.514Z,21.8
2018-03-06T18:13:09.866Z,21.8
2018-03-06T18:13:59.958Z,21.8
2018-03-06T18:14:49.146Z,21.8
2018-03-06T18:15:39.798Z,21.8
2018-03-06T18:16:29.864Z,21.8
2018-03-06T18:17:20.183Z,21.8
2018-03-06T18:18:10.216Z,21.8
2018-03-06T18:19:00.273Z,21.8
2018-03-06T18:19:50.062Z,21.8
2018-03-06T18:20:40.113Z,21.8
2018-03-06T18:21:29.619Z,21.8
2018-03-06T18:22:20.536Z,21.8
2018-03-06T18:23:10.575Z,21.8
2018-03-06T18:24:00.626Z,21.8
2018-03-06T18:24:50.685Z,21.8
2018-03-06T18:25:40.480Z,21.8
2018-03-06T18:26:30.828Z,21.8
2018-03-06T18:27:20.858Z,21.8
2018-03-06T18:28:10.748Z,21.8
2018-03-06T18:29:00.680Z,21.8
2018-03-06T18:29:51.053Z,21.7
2018-03-06T18:30:41.107Z,21.8
2018-03-06T18:31:31.180Z,21.8
2018-03-06T18:32:21.082Z,21.8
2018-03-06T18:33:10.983Z,21.8
2018-03-06T18:34:01.376Z,21.8
2018-03-06T18:34:51.224Z,21.7
2018-03-06T18:35:40.869Z,21.7
2018-03-06T18:36:31.211Z,21.8
2018-03-06T18:37:21.018Z,21.7
2018-03-06T18:38:11.588Z,21.7
2018-03-06T18:39:01.376Z,21.7
2018-03-06T18:39:51.680Z,21.7
2018-03-06T18:40:41.472Z,21.7
2018-03-06T18:41:31.850Z,21.7
2018-03-06T18:42:21.867Z,21.7
2018-03-06T18:43:11.637Z,21.7
2018-03-06T18:44:02.000Z,21.7
2018-03-06T18:44:52.045Z,21.7
2018-03-06T18:45:42.095Z,21.7
2018-03-06T18:46:32.197Z,21.7
2018-03-06T18:47:22.238Z,21.7
2018-03-06T18:48:12.111Z,21.7
2018-03-06T18:49:02.316Z,21.7
2018-03-06T18:49:52.141Z,21.7
2018-03-06T18:50:42.656Z,21.7
2018-03-06T18:51:32.218Z,21.6
2018-03-06T18:52:22.017Z,21.7
2018-03-06T18:53:12.677Z,21.7
2018-03-06T18:54:02.711Z,21.7
2018-03-06T18:54:52.194Z,21.7
2018-03-06T18:55:42.272Z,21.7
2018-03-06T18:56:32.679Z,21.7
2018-03-06T18:57:22.067Z,21.7
2018-03-06T18:58:12.983Z,21.7
2018-03-06T18:59:03.018Z,21.7
2018-03-06T18:59:53.096Z,21.7
2018-03-06T19:00:43.131Z,21.6
2018-03-06T19:01:32.619Z,21.6
2018-03-06T19:02:22.124Z,21.6
2018-03-06T19:03:13.018Z,21.6
2018-03-06T19:04:03.388Z,21.6
2018-03-06T19:04:53.457Z,21.7
2018-03-06T19:05:43.534Z,21.7
2018-03-06T19:06:33.531Z,21.6
2018-03-06T19:07:23.621Z,21.7
2018-03-06T19:08:13.647Z,21.6
2018-03-06T19:09:03.461Z,21.6
2018-03-06T19:09:53.763Z,21.6
2018-03-06T19:10:43.243Z,21.6
2018-03-06T19:11:33.870Z,21.6
2018-03-06T19:12:23.682Z,21.6
2018-03-06T19:13:14.032Z,21.6
2018-03-06T19:14:03.755Z,21.6
2018-03-06T19:14:53.849Z,21.6
2018-03-06T19:15:43.882Z,21.6
2018-03-06T19:16:33.952Z,21.6
2018-03-06T19:17:24.296Z,21.6
2018-03-06T19:18:14.096Z,21.6
2018-03-06T19:19:04.526Z,21.6
2018-03-06T19:19:53.919Z,21.6
2018-03-06T19:20:44.519Z,21.6
2018-03-06T19:21:34.004Z,21.6
2018-03-06T19:22:24.642Z,21.6
2018-03-06T19:23:14.124Z,21.6
2018-03-06T19:24:04.479Z,21.7
2018-03-06T19:24:54.554Z,21.6
2018-03-06T19:25:44.569Z,21.6
2018-03-06T19:26:34.932Z,21.7
2018-03-06T19:27:24.981Z,21.6
2018-03-06T19:28:15.062Z,21.6
2018-03-06T19:29:05.115Z,21.6
2018-03-06T19:29:55.186Z,21.6
2018-03-06T19:30:45.219Z,21.6
2018-03-06T19:31:34.964Z,21.6
2018-03-06T19:32:25.296Z,21.6
2018-03-06T19:33:15.099Z,21.6
2018-03-06T19:34:05.187Z,21.6
2018-03-06T19:34:55.207Z,21.7
2018-03-06T19:35:45.602Z,21.6
2018-03-06T19:36:35.586Z,21.6
2018-03-06T19:37:25.687Z,21.6
2018-03-06T19:38:15.433Z,21.6
2018-03-06T19:39:05.801Z,21.7
2018-03-06T19:39:55.553Z,21.6
2018-03-06T19:40:45.893Z,21.6
2018-03-06T19:41:36.016Z,21.6
2018-03-06T19:42:26.021Z,21.7
2018-03-06T19:43:16.094Z,21.6
2018-03-06T19:44:05.888Z,21.6
2018-03-06T19:44:55.908Z,21.6
2018-03-06T19:45:45.714Z,21.6
2018-03-06T19:46:35.740Z,21.6
2018-03-06T19:47:26.073Z,21.6
2018-03-06T19:48:16.425Z,21.6
2018-03-06T19:49:06.176Z,21.6
2018-03-06T19:49:56.528Z,21.6
2018-03-06T19:50:46.058Z,21.6
2018-03-06T19:51:36.669Z,21.6
2018-03-06T19:52:26.413Z,21.6
2018-03-06T19:53:16.806Z,21.6
2018-03-06T19:54:06.564Z,21.6
2018-03-06T19:54:56.331Z,21.6
2018-03-06T19:55:46.979Z,21.6
2018-03-06T19:56:37.272Z,21.6
2018-03-06T19:57:26.248Z,21.6
2018-03-06T19:58:16.563Z,21.6
2018-03-06T19:59:07.300Z,21.6
2018-03-06T19:59:56.376Z,21.6
2018-03-06T20:00:47.057Z,21.6
2018-03-06T20:01:37.072Z,21.6
2018-03-06T20:02:27.137Z,21.6
2018-03-06T20:03:17.219Z,21.6
2018-03-06T20:04:06.995Z,21.6
2018-03-06T20:04:57.024Z,21.6
2018-03-06T20:05:47.369Z,21.6
2018-03-06T20:06:37.751Z,21.6
2018-03-06T20:07:27.273Z,21.6
2018-03-06T20:08:18.005Z,21.6
2018-03-06T20:09:07.302Z,21.6
2018-03-06T20:09:57.720Z,21.6
2018-03-06T20:10:47.972Z,21.6
2018-03-06T20:11:37.475Z,21.5
2018-03-06T20:12:27.871Z,21.5
2018-03-06T20:13:17.830Z,21.6
2018-03-06T20:14:07.931Z,21.5
2018-03-06T20:14:58.321Z,21.5
2018-03-06T20:15:47.817Z,21.5
2018-03-06T20:16:37.825Z,21.5
2018-03-06T20:17:27.299Z,21.5
2018-03-06T20:18:18.221Z,21.5
2018-03-06T20:19:08.286Z,21.4
2018-03-06T20:19:58.845Z,21.4
2018-03-06T20:20:48.376Z,21.5
2018-03-06T20:21:38.796Z,21.4
2018-03-06T20:22:28.488Z,21.4
2018-03-06T20:23:18.852Z,21.4
2018-03-06T20:24:08.923Z,21.4
2018-03-06T20:24:58.681Z,21.4
2018-03-06T20:25:49.081Z,21.4
2018-03-06T20:26:38.800Z,21.4
2018-03-06T20:27:29.123Z,21.4
2018-03-06T20:28:19.208Z,21.4
2018-03-06T20:29:09.265Z,21.4
2018-03-06T20:29:59.290Z,21.4
2018-03-06T20:30:49.093Z,21.4
2018-03-06T20:31:39.423Z,21.4
2018-03-06T20:32:29.477Z,21.4
2018-03-06T20:33:19.266Z,21.4
2018-03-06T20:34:09.314Z,21.4
2018-03-06T20:34:59.053Z,21.4
2018-03-06T20:35:49.450Z,21.4
2018-03-06T20:36:39.808Z,21.4
2018-03-06T20:37:29.828Z,21.4
2018-03-06T20:38:19.838Z,21.3
2018-03-06T20:39:09.451Z,21.4
2018-03-06T20:40:00.101Z,21.4
2018-03-06T20:40:49.729Z,21.3
2018-03-06T20:41:40.128Z,21.4
2018-03-06T20:42:29.653Z,21.3
2018-03-06T20:43:19.945Z,21.3
2018-03-06T20:44:10.057Z,21.3
2018-03-06T20:45:00.135Z,21.3
2018-03-06T20:45:50.109Z,21.3
2018-03-06T20:46:40.138Z,21.3
2018-03-06T20:47:29.932Z,21.3
2018-03-06T20:48:20.587Z,21.3
2018-03-06T20:49:10.364Z,21.3
2018-03-06T20:50:00.706Z,21.3
2018-03-06T20:50:50.182Z,21.3
2018-03-06T20:51:40.843Z,21.3
2018-03-06T20:52:30.925Z,21.3
2018-03-06T20:53:20.186Z,21.3
2018-03-06T20:54:10.709Z,21.3
2018-03-06T20:55:00.160Z,21.3
2018-03-06T20:55:50.407Z,21.3
2018-03-06T20:56:40.874Z,21.3
2018-03-06T20:57:30.909Z,21.3
2018-03-06T20:58:20.959Z,21.3
2018-03-06T20:59:10.729Z,21.3
2018-03-06T21:00:01.065Z,21.3
2018-03-06T21:00:51.136Z,21.3
2018-03-06T21:01:41.194Z,21.2
2018-03-06T21:02:31.296Z,21.3
2018-03-06T21:03:21.844Z,21.3
2018-03-06T21:04:11.331Z,21.2
2018-03-06T21:05:00.856Z,21.2
2018-03-06T21:05:51.224Z,21.3
2018-03-06T21:06:41.644Z,21.2
2018-03-06T21:07:31.911Z,21.2
2018-03-06T21:08:21.696Z,21.2
2018-03-06T21:09:11.274Z,21.2
2018-03-06T21:10:01.483Z,21.2
2018-03-06T21:10:51.859Z,21.2
2018-03-06T21:11:41.144Z,21.2
2018-03-06T21:13:21.536Z,21.2
2018-03-06T21:23:22.693Z,21.1
2018-03-06T21:25:03.052Z,21.1
2018-03-06T21:25:52.540Z,21.1
2018-03-06T21:26:43.206Z,21.1
2018-03-06T21:27:32.420Z,21.1
2018-03-06T21:28:22.765Z,21.1
2018-03-06T21:29:13.026Z,21.1
2018-03-06T21:30:02.834Z,21.1
2018-03-06T21:30:53.475Z,21.1
2018-03-06T21:31:43.494Z,21.1
2018-03-06T21:32:33.371Z,21
2018-03-06T21:33:22.779Z,21.1
2018-03-06T21:34:13.148Z,21
2018-03-06T21:35:02.906Z,21
2018-03-06T21:35:53.523Z,21
2018-03-06T21:36:44.614Z,21
2018-03-06T21:37:33.774Z,21
2018-03-06T21:38:23.779Z,21
2018-03-06T21:39:14.291Z,21
2018-03-06T21:40:02.955Z,21
2018-03-06T21:40:54.167Z,21
2018-03-06T21:41:43.151Z,21
2018-03-06T21:42:33.700Z,21
2018-03-06T21:43:22.856Z,21
2018-03-06T21:44:13.852Z,21
2018-03-06T21:45:04.439Z,21
2018-03-06T21:45:53.917Z,20.9
2018-03-06T21:46:44.076Z,20.9
2018-03-06T21:47:34.595Z,21
2018-03-06T21:48:24.652Z,20.9
2018-03-06T21:49:14.434Z,20.9
2018-03-06T21:50:04.832Z,20.9
2018-03-06T21:50:54.090Z,20.9
2018-03-06T21:51:44.869Z,20.9
2018-03-06T21:52:34.682Z,20.9
2018-03-06T21:53:25.009Z,20.9
2018-03-06T21:54:15.053Z,20.9
2018-03-06T21:55:05.124Z,20.9
2018-03-06T21:55:54.903Z,20.9
2018-03-06T21:56:45.229Z,20.9
2018-03-06T21:57:35.268Z,20.9
2018-03-06T21:58:25.342Z,20.9
2018-03-06T21:59:15.420Z,20.9
2018-03-06T22:00:05.463Z,20.9
2018-03-06T22:00:55.240Z,20.9
2018-03-06T22:01:45.316Z,20.9
2018-03-06T22:02:35.648Z,20.9
2018-03-06T22:03:25.675Z,20.9
2018-03-06T22:04:15.752Z,20.9
2018-03-06T22:05:05.541Z,20.8
2018-03-06T22:05:55.896Z,20.9
2018-03-06T22:06:45.651Z,20.8
2018-03-06T22:07:35.421Z,20.8
2018-03-06T22:08:26.031Z,20.8
2018-03-06T22:09:16.097Z,20.9
2018-03-06T22:10:05.881Z,20.8
2018-03-06T22:10:55.925Z,20.8
2018-03-06T22:11:46.313Z,20.8
2018-03-06T22:12:36.349Z,20.8
2018-03-06T22:13:26.113Z,20.8
2018-03-06T22:14:16.175Z,20.8
2018-03-06T22:15:06.513Z,20.8
2018-03-06T22:15:56.096Z,20.8
2018-03-06T22:16:46.329Z,20.8
2018-03-06T22:17:36.653Z,20.8
2018-03-06T22:18:26.437Z,20.8
2018-03-06T22:19:16.492Z,20.8
2018-03-06T22:20:06.551Z,20.8
2018-03-06T22:20:56.893Z,20.8
2018-03-06T22:21:46.961Z,20.8
2018-03-06T22:22:36.721Z,20.8
2018-03-06T22:23:26.245Z,20.8
2018-03-06T22:24:16.841Z,20.8
2018-03-06T22:25:07.182Z,20.8
2018-03-06T22:25:57.252Z,20.8
2018-03-06T22:26:47.037Z,20.8
2018-03-06T22:27:37.061Z,20.8
2018-03-06T22:28:27.124Z,20.8
2018-03-06T22:29:17.462Z,20.7
2018-03-06T22:30:07.550Z,20.8
2018-03-06T22:30:57.288Z,20.7
2018-03-06T22:31:47.377Z,20.7
2018-03-06T22:32:37.144Z,20.7
2018-03-06T22:33:27.730Z,20.7
2018-03-06T22:34:17.257Z,20.7
2018-03-06T22:35:07.322Z,20.7
2018-03-06T22:35:57.382Z,20.7
2018-03-06T22:36:47.697Z,20.7
2018-03-06T22:37:38.056Z,20.7
2018-03-06T22:38:28.362Z,20.7
2018-03-06T22:39:18.169Z,20.7
2018-03-06T22:40:08.239Z,20.7
2018-03-06T22:40:57.708Z,20.7
2018-03-06T22:41:48.050Z,20.6
2018-03-06T22:42:38.370Z,20.7
2018-03-06T22:43:27.873Z,20.7
2018-03-06T22:44:18.545Z,20.7
2018-03-06T22:45:08.336Z,20.6
2018-03-06T22:45:58.343Z,20.6
2018-03-06T22:46:48.684Z,20.6
2018-03-06T22:47:38.718Z,20.6
2018-03-06T22:48:28.500Z,20.6
2018-03-06T22:49:18.866Z,20.6
2018-03-06T22:50:08.888Z,20.6
2018-03-06T22:50:58.678Z,20.6
2018-03-06T22:51:48.781Z,20.6
2018-03-06T22:52:38.802Z,20.6
2018-03-06T22:53:28.550Z,20.6
2018-03-06T22:54:18.933Z,20.6
2018-03-06T22:55:08.959Z,20.6
2018-03-06T22:55:59.027Z,20.6
2018-03-06T22:56:49.070Z,20.6
2018-03-06T22:57:39.432Z,20.6
2018-03-06T22:58:29.178Z,20.6
2018-03-06T22:59:19.278Z,20.6
2018-03-06T23:00:09.612Z,20.6
2018-03-06T23:00:59.358Z,20.6
2018-03-06T23:01:49.698Z,20.6
2018-03-06T23:02:39.763Z,20.6
2018-03-06T23:03:29.834Z,20.6
2018-03-06T23:04:19.583Z,20.6
2018-03-06T23:05:09.662Z,20.6
2018-03-06T23:05:59.442Z,20.6
2018-03-06T23:06:50.045Z,20.6
2018-03-06T23:07:40.095Z,20.6
2018-03-06T23:08:30.150Z,20.6
2018-03-06T23:09:19.690Z,20.6
2018-03-06T23:10:10.556Z,20.6
2018-03-06T23:11:00.062Z,20.6
2018-03-06T23:11:50.129Z,20.6
2018-03-06T23:12:40.156Z,20.6
2018-03-06T23:13:30.619Z,20.5
2018-03-06T23:14:20.482Z,20.5
2018-03-06T23:15:10.634Z,20.6
2018-03-06T23:16:00.681Z,20.5
2018-03-06T23:16:50.179Z,20.5
2018-03-06T23:17:40.507Z,20.5
2018-03-06T23:18:30.903Z,20.5
2018-03-06T23:19:20.637Z,20.5
2018-03-06T23:20:10.676Z,20.5
2018-03-06T23:21:00.770Z,20.5
2018-03-06T23:21:50.549Z,20.5
2018-03-06T23:22:40.880Z,20.5
2018-03-06T23:23:30.609Z,20.5
2018-03-06T23:24:21.022Z,20.5
2018-03-06T23:25:11.329Z,20.5
2018-03-06T23:26:00.512Z,20.5
2018-03-06T23:26:51.496Z,20.5
2018-03-06T23:27:41.193Z,20.4
2018-03-06T23:28:31.546Z,20.5
2018-03-06T23:29:21.304Z,20.5
2018-03-06T23:30:11.664Z,20.4
2018-03-06T23:31:01.156Z,20.5
2018-03-06T23:31:51.466Z,20.5
2018-03-06T23:32:41.829Z,20.4
2018-03-06T23:33:31.611Z,20.4
2018-03-06T23:34:21.695Z,20.5
2018-03-06T23:35:12.008Z,20.4
2018-03-06T23:36:02.043Z,20.4
2018-03-06T23:36:51.840Z,20.4
2018-03-06T23:37:42.196Z,20.4
2018-03-06T23:38:32.249Z,20.4
2018-03-06T23:39:21.999Z,20.4
2018-03-06T23:40:12.348Z,20.4
2018-03-06T23:41:02.124Z,20.4
2018-03-06T23:41:52.163Z,20.4
2018-03-06T23:42:42.542Z,20.4
2018-03-06T23:43:32.298Z,20.4
2018-03-06T23:44:22.637Z,20.4
2018-03-06T23:45:12.671Z,20.4
2018-03-06T23:46:01.893Z,20.4
2018-03-06T23:46:52.258Z,20.4
2018-03-06T23:47:42.587Z,20.4
2018-03-06T23:48:32.896Z,20.4
2018-03-06T23:49:23.024Z,20.4
2018-03-06T23:50:13.045Z,20.4
2018-03-06T23:51:02.862Z,20.4
2018-03-06T23:51:52.575Z,20.4
2018-03-06T23:52:42.663Z,20.4
2018-03-06T23:53:33.280Z,20.4
2018-03-06T23:54:23.332Z,20.4
2018-03-06T23:55:12.528Z,20.4
2018-03-06T23:56:02.595Z,20.4
2018-03-06T23:56:53.211Z,20.4
2018-03-06T23:57:43.542Z,20.4
2018-03-06T23:58:33.315Z,20.4
2018-03-06T23:59:23.654Z,20.4
